sensor_id;sensor_type;location;lat;lon;timestamp;P1;durP1;ratioP1;P2;durP2;ratioP2
41512;SDS011;27244;59.940;30.280;2023-04-03T00:01:43;3.00;;;1.05;;
41512;SDS011;27244;59.940;30.280;2023-04-03T00:04:10;3.03;;;1.00;;
41512;SDS011;27244;59.940;30.280;2023-04-03T00:06:37;2.05;;;0.88;;
41512;SDS011;27244;59.940;30.280;2023-04-03T00:09:04;2.58;;;0.75;;
41512;SDS011;27244;59.940;30.280;2023-04-03T00:11:31;3.22;;;0.73;;
41512;SDS011;27244;59.940;30.280;2023-04-03T00:13:58;2.03;;;0.73;;
41512;SDS011;27244;59.940;30.280;2023-04-03T00:16:26;1.80;;;0.75;;
41512;SDS011;27244;59.940;30.280;2023-04-03T00:18:53;2.08;;;0.77;;
41512;SDS011;27244;59.940;30.280;2023-04-03T00:21:20;2.35;;;0.80;;
41512;SDS011;27244;59.940;30.280;2023-04-03T00:23:47;2.20;;;0.77;;
41512;SDS011;27244;59.940;30.280;2023-04-03T00:26:14;1.55;;;0.70;;
41512;SDS011;27244;59.940;30.280;2023-04-03T00:28:41;2.35;;;0.80;;
41512;SDS011;27244;59.940;30.280;2023-04-03T00:31:08;2.05;;;0.75;;
41512;SDS011;27244;59.940;30.280;2023-04-03T00:33:36;2.30;;;0.90;;
41512;SDS011;27244;59.940;30.280;2023-04-03T00:36:06;2.80;;;1.05;;
41512;SDS011;27244;59.940;30.280;2023-04-03T00:38:34;1.50;;;0.85;;
41512;SDS011;27244;59.940;30.280;2023-04-03T00:41:01;1.27;;;0.60;;
41512;SDS011;27244;59.940;30.280;2023-04-03T00:43:28;2.63;;;0.77;;
41512;SDS011;27244;59.940;30.280;2023-04-03T00:45:56;3.03;;;0.93;;
41512;SDS011;27244;59.940;30.280;2023-04-03T00:48:24;2.05;;;0.70;;
41512;SDS011;27244;59.940;30.280;2023-04-03T00:50:57;1.88;;;0.77;;
41512;SDS011;27244;59.940;30.280;2023-04-03T00:53:26;3.22;;;0.98;;
41512;SDS011;27244;59.940;30.280;2023-04-03T00:55:57;1.83;;;0.75;;
41512;SDS011;27244;59.940;30.280;2023-04-03T00:58:28;2.42;;;0.80;;
41512;SDS011;27244;59.940;30.280;2023-04-03T01:00:59;2.20;;;0.85;;
41512;SDS011;27244;59.940;30.280;2023-04-03T01:03:32;3.17;;;0.75;;
41512;SDS011;27244;59.940;30.280;2023-04-03T01:06:04;1.80;;;0.57;;
41512;SDS011;27244;59.940;30.280;2023-04-03T01:08:31;3.20;;;0.93;;
41512;SDS011;27244;59.940;30.280;2023-04-03T01:10:59;1.60;;;0.70;;
41512;SDS011;27244;59.940;30.280;2023-04-03T01:13:26;2.42;;;1.00;;
41512;SDS011;27244;59.940;30.280;2023-04-03T01:15:56;2.38;;;0.80;;
41512;SDS011;27244;59.940;30.280;2023-04-03T01:18:23;2.30;;;0.80;;
41512;SDS011;27244;59.940;30.280;2023-04-03T01:21:03;2.00;;;0.80;;
41512;SDS011;27244;59.940;30.280;2023-04-03T01:24:08;2.00;;;0.73;;
41512;SDS011;27244;59.940;30.280;2023-04-03T01:26:45;3.03;;;0.82;;
41512;SDS011;27244;59.940;30.280;2023-04-03T01:29:12;2.47;;;0.70;;
41512;SDS011;27244;59.940;30.280;2023-04-03T01:31:44;1.70;;;0.90;;
41512;SDS011;27244;59.940;30.280;2023-04-03T01:34:13;2.92;;;0.98;;
41512;SDS011;27244;59.940;30.280;2023-04-03T01:36:40;1.92;;;0.82;;
41512;SDS011;27244;59.940;30.280;2023-04-03T01:39:08;2.28;;;0.85;;
41512;SDS011;27244;59.940;30.280;2023-04-03T01:41:35;1.80;;;0.60;;
41512;SDS011;27244;59.940;30.280;2023-04-03T01:44:10;2.38;;;0.90;;
41512;SDS011;27244;59.940;30.280;2023-04-03T01:46:37;3.10;;;0.80;;
41512;SDS011;27244;59.940;30.280;2023-04-03T01:49:05;2.05;;;0.60;;
41512;SDS011;27244;59.940;30.280;2023-04-03T01:51:32;1.75;;;0.93;;
41512;SDS011;27244;59.940;30.280;2023-04-03T01:53:59;3.40;;;0.80;;
41512;SDS011;27244;59.940;30.280;2023-04-03T01:56:26;1.65;;;0.68;;
41512;SDS011;27244;59.940;30.280;2023-04-03T01:58:54;1.45;;;0.77;;
41512;SDS011;27244;59.940;30.280;2023-04-03T02:01:21;2.65;;;0.75;;
41512;SDS011;27244;59.940;30.280;2023-04-03T02:03:48;1.00;;;0.50;;
41512;SDS011;27244;59.940;30.280;2023-04-03T02:06:17;2.42;;;0.70;;
41512;SDS011;27244;59.940;30.280;2023-04-03T02:08:44;1.42;;;0.90;;
41512;SDS011;27244;59.940;30.280;2023-04-03T02:11:11;1.75;;;0.63;;
41512;SDS011;27244;59.940;30.280;2023-04-03T02:13:38;2.08;;;0.65;;
41512;SDS011;27244;59.940;30.280;2023-04-03T02:16:06;1.42;;;0.50;;
41512;SDS011;27244;59.940;30.280;2023-04-03T02:18:35;2.63;;;1.02;;
41512;SDS011;27244;59.940;30.280;2023-04-03T02:21:02;3.47;;;0.70;;
41512;SDS011;27244;59.940;30.280;2023-04-03T02:23:30;2.78;;;0.80;;
41512;SDS011;27244;59.940;30.280;2023-04-03T02:26:05;2.78;;;0.95;;
41512;SDS011;27244;59.940;30.280;2023-04-03T02:28:33;1.83;;;0.85;;
41512;SDS011;27244;59.940;30.280;2023-04-03T02:31:01;2.10;;;0.70;;
41512;SDS011;27244;59.940;30.280;2023-04-03T02:33:29;1.65;;;0.70;;
41512;SDS011;27244;59.940;30.280;2023-04-03T02:35:57;3.00;;;0.70;;
41512;SDS011;27244;59.940;30.280;2023-04-03T02:38:25;2.00;;;0.80;;
41512;SDS011;27244;59.940;30.280;2023-04-03T02:40:57;2.15;;;0.70;;
41512;SDS011;27244;59.940;30.280;2023-04-03T02:43:26;2.55;;;0.80;;
41512;SDS011;27244;59.940;30.280;2023-04-03T02:45:53;2.38;;;0.70;;
41512;SDS011;27244;59.940;30.280;2023-04-03T02:48:20;2.50;;;0.70;;
41512;SDS011;27244;59.940;30.280;2023-04-03T02:50:47;1.92;;;0.60;;
41512;SDS011;27244;59.940;30.280;2023-04-03T02:53:14;3.50;;;0.70;;
41512;SDS011;27244;59.940;30.280;2023-04-03T02:55:42;2.47;;;0.85;;
41512;SDS011;27244;59.940;30.280;2023-04-03T02:58:10;1.63;;;0.60;;
41512;SDS011;27244;59.940;30.280;2023-04-03T03:00:37;3.03;;;0.70;;
41512;SDS011;27244;59.940;30.280;2023-04-03T03:03:04;1.65;;;0.63;;
41512;SDS011;27244;59.940;30.280;2023-04-03T03:05:31;1.50;;;0.60;;
41512;SDS011;27244;59.940;30.280;2023-04-03T03:07:58;1.67;;;0.68;;
41512;SDS011;27244;59.940;30.280;2023-04-03T03:10:25;2.10;;;0.75;;
41512;SDS011;27244;59.940;30.280;2023-04-03T03:12:52;1.85;;;0.68;;
41512;SDS011;27244;59.940;30.280;2023-04-03T03:15:21;1.90;;;0.77;;
41512;SDS011;27244;59.940;30.280;2023-04-03T03:17:48;2.85;;;0.80;;
41512;SDS011;27244;59.940;30.280;2023-04-03T03:20:15;2.88;;;0.98;;
41512;SDS011;27244;59.940;30.280;2023-04-03T03:22:42;3.00;;;0.88;;
41512;SDS011;27244;59.940;30.280;2023-04-03T03:25:09;1.30;;;0.60;;
41512;SDS011;27244;59.940;30.280;2023-04-03T03:27:36;2.80;;;0.75;;
41512;SDS011;27244;59.940;30.280;2023-04-03T03:30:04;1.50;;;0.70;;
41512;SDS011;27244;59.940;30.280;2023-04-03T03:32:34;2.95;;;0.98;;
41512;SDS011;27244;59.940;30.280;2023-04-03T03:35:01;3.00;;;0.80;;
41512;SDS011;27244;59.940;30.280;2023-04-03T03:37:28;1.35;;;0.60;;
41512;SDS011;27244;59.940;30.280;2023-04-03T03:39:55;1.45;;;0.68;;
41512;SDS011;27244;59.940;30.280;2023-04-03T03:42:22;2.72;;;1.00;;
41512;SDS011;27244;59.940;30.280;2023-04-03T03:44:49;1.85;;;0.80;;
41512;SDS011;27244;59.940;30.280;2023-04-03T03:47:18;3.08;;;1.10;;
41512;SDS011;27244;59.940;30.280;2023-04-03T03:49:47;2.05;;;0.80;;
41512;SDS011;27244;59.940;30.280;2023-04-03T03:52:15;1.23;;;0.55;;
41512;SDS011;27244;59.940;30.280;2023-04-03T03:54:42;1.80;;;0.60;;
41512;SDS011;27244;59.940;30.280;2023-04-03T03:57:10;2.63;;;1.02;;
41512;SDS011;27244;59.940;30.280;2023-04-03T03:59:37;3.85;;;1.42;;
41512;SDS011;27244;59.940;30.280;2023-04-03T04:02:06;1.50;;;0.65;;
41512;SDS011;27244;59.940;30.280;2023-04-03T04:04:33;1.85;;;0.70;;
41512;SDS011;27244;59.940;30.280;2023-04-03T04:07:02;2.22;;;1.00;;
41512;SDS011;27244;59.940;30.280;2023-04-03T04:09:30;1.80;;;0.90;;
41512;SDS011;27244;59.940;30.280;2023-04-03T04:11:57;1.48;;;0.60;;
41512;SDS011;27244;59.940;30.280;2023-04-03T04:14:24;1.95;;;0.70;;
41512;SDS011;27244;59.940;30.280;2023-04-03T04:16:52;2.38;;;0.90;;
41512;SDS011;27244;59.940;30.280;2023-04-03T04:19:23;2.13;;;0.85;;
41512;SDS011;27244;59.940;30.280;2023-04-03T04:21:50;2.60;;;0.50;;
41512;SDS011;27244;59.940;30.280;2023-04-03T04:24:19;0.82;;;0.52;;
41512;SDS011;27244;59.940;30.280;2023-04-03T04:26:50;1.63;;;0.40;;
41512;SDS011;27244;59.940;30.280;2023-04-03T04:29:18;1.27;;;0.35;;
41512;SDS011;27244;59.940;30.280;2023-04-03T04:31:47;1.70;;;0.65;;
41512;SDS011;27244;59.940;30.280;2023-04-03T04:34:15;1.02;;;0.57;;
41512;SDS011;27244;59.940;30.280;2023-04-03T04:36:42;1.58;;;0.50;;
41512;SDS011;27244;59.940;30.280;2023-04-03T04:39:09;3.00;;;0.63;;
41512;SDS011;27244;59.940;30.280;2023-04-03T04:41:38;1.33;;;0.73;;
41512;SDS011;27244;59.940;30.280;2023-04-03T04:44:06;1.23;;;0.63;;
41512;SDS011;27244;59.940;30.280;2023-04-03T04:46:34;1.15;;;0.60;;
41512;SDS011;27244;59.940;30.280;2023-04-03T04:49:01;0.77;;;0.50;;
41512;SDS011;27244;59.940;30.280;2023-04-03T04:51:29;4.50;;;0.70;;
41512;SDS011;27244;59.940;30.280;2023-04-03T04:53:57;2.03;;;0.70;;
41512;SDS011;27244;59.940;30.280;2023-04-03T04:56:24;1.60;;;0.85;;
41512;SDS011;27244;59.940;30.280;2023-04-03T04:58:55;2.10;;;0.60;;
41512;SDS011;27244;59.940;30.280;2023-04-03T05:01:23;1.13;;;0.40;;
41512;SDS011;27244;59.940;30.280;2023-04-03T05:04:00;3.95;;;0.40;;
41512;SDS011;27244;59.940;30.280;2023-04-03T05:06:27;2.00;;;0.50;;
41512;SDS011;27244;59.940;30.280;2023-04-03T05:08:56;1.52;;;0.75;;
41512;SDS011;27244;59.940;30.280;2023-04-03T05:11:23;0.80;;;0.50;;
41512;SDS011;27244;59.940;30.280;2023-04-03T05:13:52;1.58;;;0.50;;
41512;SDS011;27244;59.940;30.280;2023-04-03T05:16:22;1.02;;;0.35;;
41512;SDS011;27244;59.940;30.280;2023-04-03T05:18:50;0.88;;;0.55;;
41512;SDS011;27244;59.940;30.280;2023-04-03T05:21:20;0.95;;;0.40;;
41512;SDS011;27244;59.940;30.280;2023-04-03T05:23:50;1.60;;;0.50;;
41512;SDS011;27244;59.940;30.280;2023-04-03T05:26:17;1.15;;;0.80;;
41512;SDS011;27244;59.940;30.280;2023-04-03T05:28:46;2.03;;;0.38;;
41512;SDS011;27244;59.940;30.280;2023-04-03T05:31:14;0.80;;;0.40;;
41512;SDS011;27244;59.940;30.280;2023-04-03T05:33:43;1.23;;;0.40;;
41512;SDS011;27244;59.940;30.280;2023-04-03T05:36:15;3.13;;;0.40;;
41512;SDS011;27244;59.940;30.280;2023-04-03T05:38:45;2.75;;;0.50;;
41512;SDS011;27244;59.940;30.280;2023-04-03T05:41:13;1.08;;;0.50;;
41512;SDS011;27244;59.940;30.280;2023-04-03T05:43:42;1.52;;;0.40;;
41512;SDS011;27244;59.940;30.280;2023-04-03T05:46:10;4.63;;;0.55;;
41512;SDS011;27244;59.940;30.280;2023-04-03T05:48:39;1.30;;;0.50;;
41512;SDS011;27244;59.940;30.280;2023-04-03T05:51:13;2.33;;;0.30;;
41512;SDS011;27244;59.940;30.280;2023-04-03T05:53:46;1.55;;;0.60;;
41512;SDS011;27244;59.940;30.280;2023-04-03T05:56:14;2.35;;;0.60;;
41512;SDS011;27244;59.940;30.280;2023-04-03T05:58:41;1.08;;;0.32;;
41512;SDS011;27244;59.940;30.280;2023-04-03T06:01:08;0.52;;;0.40;;
41512;SDS011;27244;59.940;30.280;2023-04-03T06:03:35;8.77;;;0.57;;
41512;SDS011;27244;59.940;30.280;2023-04-03T06:06:04;1.17;;;0.30;;
41512;SDS011;27244;59.940;30.280;2023-04-03T06:08:33;2.83;;;0.38;;
41512;SDS011;27244;59.940;30.280;2023-04-03T06:11:00;3.60;;;0.45;;
41512;SDS011;27244;59.940;30.280;2023-04-03T06:13:28;1.17;;;0.50;;
41512;SDS011;27244;59.940;30.280;2023-04-03T06:15:55;3.47;;;0.50;;
41512;SDS011;27244;59.940;30.280;2023-04-03T06:18:23;0.88;;;0.40;;
41512;SDS011;27244;59.940;30.280;2023-04-03T06:20:50;1.85;;;0.40;;
41512;SDS011;27244;59.940;30.280;2023-04-03T06:23:18;2.58;;;0.60;;
41512;SDS011;27244;59.940;30.280;2023-04-03T06:25:47;0.75;;;0.30;;
41512;SDS011;27244;59.940;30.280;2023-04-03T06:28:14;1.20;;;0.35;;
41512;SDS011;27244;59.940;30.280;2023-04-03T06:30:41;1.58;;;0.30;;
41512;SDS011;27244;59.940;30.280;2023-04-03T06:33:08;0.90;;;0.50;;
41512;SDS011;27244;59.940;30.280;2023-04-03T06:35:35;0.73;;;0.43;;
41512;SDS011;27244;59.940;30.280;2023-04-03T06:38:03;0.85;;;0.40;;
41512;SDS011;27244;59.940;30.280;2023-04-03T06:40:34;1.02;;;0.32;;
41512;SDS011;27244;59.940;30.280;2023-04-03T06:43:03;0.88;;;0.47;;
41512;SDS011;27244;59.940;30.280;2023-04-03T06:45:31;1.10;;;0.40;;
41512;SDS011;27244;59.940;30.280;2023-04-03T06:47:58;1.35;;;0.40;;
41512;SDS011;27244;59.940;30.280;2023-04-03T06:50:25;0.68;;;0.40;;
41512;SDS011;27244;59.940;30.280;2023-04-03T06:52:52;1.45;;;0.35;;
41512;SDS011;27244;59.940;30.280;2023-04-03T06:55:19;0.80;;;0.30;;
41512;SDS011;27244;59.940;30.280;2023-04-03T06:57:46;1.08;;;0.40;;
41512;SDS011;27244;59.940;30.280;2023-04-03T07:00:24;2.10;;;0.32;;
41512;SDS011;27244;59.940;30.280;2023-04-03T07:02:53;1.95;;;0.40;;
41512;SDS011;27244;59.940;30.280;2023-04-03T07:05:21;1.30;;;0.35;;
41512;SDS011;27244;59.940;30.280;2023-04-03T07:07:48;1.02;;;0.45;;
41512;SDS011;27244;59.940;30.280;2023-04-03T07:10:16;1.77;;;0.40;;
41512;SDS011;27244;59.940;30.280;2023-04-03T07:12:43;1.02;;;0.50;;
41512;SDS011;27244;59.940;30.280;2023-04-03T07:15:10;1.05;;;0.40;;
41512;SDS011;27244;59.940;30.280;2023-04-03T07:17:39;0.45;;;0.22;;
41512;SDS011;27244;59.940;30.280;2023-04-03T07:20:07;0.85;;;0.38;;
41512;SDS011;27244;59.940;30.280;2023-04-03T07:22:34;0.55;;;0.38;;
41512;SDS011;27244;59.940;30.280;2023-04-03T07:25:02;0.63;;;0.40;;
41512;SDS011;27244;59.940;30.280;2023-04-03T07:27:29;1.05;;;0.40;;
41512;SDS011;27244;59.940;30.280;2023-04-03T07:29:57;0.60;;;0.38;;
41512;SDS011;27244;59.940;30.280;2023-04-03T07:32:24;0.80;;;0.30;;
41512;SDS011;27244;59.940;30.280;2023-04-03T07:34:52;0.98;;;0.32;;
41512;SDS011;27244;59.940;30.280;2023-04-03T07:37:19;0.57;;;0.30;;
41512;SDS011;27244;59.940;30.280;2023-04-03T07:39:46;0.63;;;0.30;;
41512;SDS011;27244;59.940;30.280;2023-04-03T07:42:19;1.95;;;0.40;;
41512;SDS011;27244;59.940;30.280;2023-04-03T07:44:46;0.90;;;0.40;;
41512;SDS011;27244;59.940;30.280;2023-04-03T07:47:13;0.40;;;0.20;;
41512;SDS011;27244;59.940;30.280;2023-04-03T07:49:42;0.80;;;0.38;;
41512;SDS011;27244;59.940;30.280;2023-04-03T07:52:11;0.60;;;0.30;;
41512;SDS011;27244;59.940;30.280;2023-04-03T07:54:39;0.55;;;0.20;;
41512;SDS011;27244;59.940;30.280;2023-04-03T07:57:06;0.90;;;0.28;;
41512;SDS011;27244;59.940;30.280;2023-04-03T07:59:33;0.85;;;0.38;;
41512;SDS011;27244;59.940;30.280;2023-04-03T08:02:01;0.38;;;0.20;;
41512;SDS011;27244;59.940;30.280;2023-04-03T08:04:30;0.60;;;0.30;;
41512;SDS011;27244;59.940;30.280;2023-04-03T08:06:57;0.65;;;0.30;;
41512;SDS011;27244;59.940;30.280;2023-04-03T08:09:25;0.55;;;0.30;;
41512;SDS011;27244;59.940;30.280;2023-04-03T08:11:52;0.82;;;0.30;;
41512;SDS011;27244;59.940;30.280;2023-04-03T08:14:19;0.57;;;0.30;;
41512;SDS011;27244;59.940;30.280;2023-04-03T08:16:47;0.30;;;0.25;;
41512;SDS011;27244;59.940;30.280;2023-04-03T08:19:14;1.73;;;0.40;;
41512;SDS011;27244;59.940;30.280;2023-04-03T08:21:43;0.70;;;0.38;;
41512;SDS011;27244;59.940;30.280;2023-04-03T08:24:10;0.68;;;0.30;;
41512;SDS011;27244;59.940;30.280;2023-04-03T08:26:39;0.50;;;0.30;;
41512;SDS011;27244;59.940;30.280;2023-04-03T08:29:06;1.00;;;0.40;;
41512;SDS011;27244;59.940;30.280;2023-04-03T08:31:33;1.17;;;0.40;;
41512;SDS011;27244;59.940;30.280;2023-04-03T08:34:00;0.45;;;0.28;;
41512;SDS011;27244;59.940;30.280;2023-04-03T08:36:27;1.13;;;0.25;;
41512;SDS011;27244;59.940;30.280;2023-04-03T08:38:56;0.73;;;0.20;;
41512;SDS011;27244;59.940;30.280;2023-04-03T08:41:26;0.52;;;0.30;;
41512;SDS011;27244;59.940;30.280;2023-04-03T08:44:05;0.35;;;0.20;;
41512;SDS011;27244;59.940;30.280;2023-04-03T08:46:47;0.80;;;0.40;;
41512;SDS011;27244;59.940;30.280;2023-04-03T08:49:23;0.52;;;0.20;;
41512;SDS011;27244;59.940;30.280;2023-04-03T08:51:54;0.63;;;0.30;;
41512;SDS011;27244;59.940;30.280;2023-04-03T08:54:29;0.45;;;0.28;;
41512;SDS011;27244;59.940;30.280;2023-04-03T08:57:00;0.50;;;0.20;;
41512;SDS011;27244;59.940;30.280;2023-04-03T08:59:32;0.63;;;0.30;;
41512;SDS011;27244;59.940;30.280;2023-04-03T09:02:01;0.73;;;0.55;;
41512;SDS011;27244;59.940;30.280;2023-04-03T09:04:39;0.50;;;0.30;;
41512;SDS011;27244;59.940;30.280;2023-04-03T09:07:07;0.35;;;0.25;;
41512;SDS011;27244;59.940;30.280;2023-04-03T09:09:40;1.13;;;0.40;;
41512;SDS011;27244;59.940;30.280;2023-04-03T09:12:12;0.65;;;0.30;;
41512;SDS011;27244;59.940;30.280;2023-04-03T09:14:49;1.30;;;0.40;;
41512;SDS011;27244;59.940;30.280;2023-04-03T09:17:27;0.20;;;0.20;;
41512;SDS011;27244;59.940;30.280;2023-04-03T09:20:06;0.57;;;0.30;;
41512;SDS011;27244;59.940;30.280;2023-04-03T09:22:42;2.10;;;0.40;;
41512;SDS011;27244;59.940;30.280;2023-04-03T09:25:12;0.52;;;0.40;;
41512;SDS011;27244;59.940;30.280;2023-04-03T09:27:42;1.50;;;0.35;;
41512;SDS011;27244;59.940;30.280;2023-04-03T09:30:14;0.85;;;0.30;;
41512;SDS011;27244;59.940;30.280;2023-04-03T09:32:44;2.95;;;0.43;;
41512;SDS011;27244;59.940;30.280;2023-04-03T09:35:17;2.42;;;0.60;;
41512;SDS011;27244;59.940;30.280;2023-04-03T09:37:48;1.25;;;0.40;;
41512;SDS011;27244;59.940;30.280;2023-04-03T09:43:19;1.92;;;0.68;;
41512;SDS011;27244;59.940;30.280;2023-04-03T09:45:53;1.10;;;0.30;;
41512;SDS011;27244;59.940;30.280;2023-04-03T09:48:22;1.35;;;0.50;;
41512;SDS011;27244;59.940;30.280;2023-04-03T09:50:54;2.08;;;0.82;;
41512;SDS011;27244;59.940;30.280;2023-04-03T09:53:29;3.78;;;0.60;;
41512;SDS011;27244;59.940;30.280;2023-04-03T09:55:59;1.52;;;0.60;;
41512;SDS011;27244;59.940;30.280;2023-04-03T09:58:29;1.75;;;0.50;;
41512;SDS011;27244;59.940;30.280;2023-04-03T10:01:00;1.33;;;0.60;;
41512;SDS011;27244;59.940;30.280;2023-04-03T10:03:29;6.15;;;0.95;;
41512;SDS011;27244;59.940;30.280;2023-04-03T10:05:57;2.03;;;0.80;;
41512;SDS011;27244;59.940;30.280;2023-04-03T10:08:26;2.85;;;1.23;;
41512;SDS011;27244;59.940;30.280;2023-04-03T10:11:06;5.47;;;1.30;;
41512;SDS011;27244;59.940;30.280;2023-04-03T10:13:36;3.17;;;1.15;;
41512;SDS011;27244;59.940;30.280;2023-04-03T10:16:17;2.97;;;1.15;;
41512;SDS011;27244;59.940;30.280;2023-04-03T10:18:49;3.55;;;1.30;;
41512;SDS011;27244;59.940;30.280;2023-04-03T10:21:29;4.50;;;1.48;;
41512;SDS011;27244;59.940;30.280;2023-04-03T10:24:07;5.22;;;1.38;;
41512;SDS011;27244;59.940;30.280;2023-04-03T10:26:39;3.20;;;1.67;;
41512;SDS011;27244;59.940;30.280;2023-04-03T10:29:18;4.85;;;1.55;;
41512;SDS011;27244;59.940;30.280;2023-04-03T10:32:06;4.57;;;1.60;;
41512;SDS011;27244;59.940;30.280;2023-04-03T10:34:54;3.30;;;1.60;;
41512;SDS011;27244;59.940;30.280;2023-04-03T10:37:29;5.13;;;1.85;;
41512;SDS011;27244;59.940;30.280;2023-04-03T10:40:04;4.70;;;2.17;;
41512;SDS011;27244;59.940;30.280;2023-04-03T10:42:42;4.05;;;1.90;;
41512;SDS011;27244;59.940;30.280;2023-04-03T10:45:19;3.30;;;1.80;;
41512;SDS011;27244;59.940;30.280;2023-04-03T10:47:54;3.45;;;1.90;;
41512;SDS011;27244;59.940;30.280;2023-04-03T10:50:31;5.35;;;2.25;;
41512;SDS011;27244;59.940;30.280;2023-04-03T10:53:11;11.30;;;2.85;;
41512;SDS011;27244;59.940;30.280;2023-04-03T10:55:46;4.80;;;1.80;;
41512;SDS011;27244;59.940;30.280;2023-04-03T10:58:20;5.72;;;1.98;;
41512;SDS011;27244;59.940;30.280;2023-04-03T11:00:53;5.43;;;2.42;;
41512;SDS011;27244;59.940;30.280;2023-04-03T11:03:29;6.88;;;2.38;;
41512;SDS011;27244;59.940;30.280;2023-04-03T11:05:59;5.57;;;2.50;;
41512;SDS011;27244;59.940;30.280;2023-04-03T11:08:28;5.90;;;2.45;;
41512;SDS011;27244;59.940;30.280;2023-04-03T11:11:04;5.07;;;2.28;;
41512;SDS011;27244;59.940;30.280;2023-04-03T11:13:38;6.25;;;2.13;;
41512;SDS011;27244;59.940;30.280;2023-04-03T11:16:09;5.22;;;2.38;;
41512;SDS011;27244;59.940;30.280;2023-04-03T11:18:45;6.15;;;2.35;;
41512;SDS011;27244;59.940;30.280;2023-04-03T11:21:17;7.05;;;2.83;;
41512;SDS011;27244;59.940;30.280;2023-04-03T11:23:48;5.28;;;2.50;;
41512;SDS011;27244;59.940;30.280;2023-04-03T11:26:18;4.65;;;2.25;;
41512;SDS011;27244;59.940;30.280;2023-04-03T11:28:48;6.93;;;2.78;;
41512;SDS011;27244;59.940;30.280;2023-04-03T11:31:26;6.30;;;2.40;;
41512;SDS011;27244;59.940;30.280;2023-04-03T11:36:38;7.80;;;3.10;;
41512;SDS011;27244;59.940;30.280;2023-04-03T11:39:13;4.90;;;2.33;;
41512;SDS011;27244;59.940;30.280;2023-04-03T11:41:49;6.68;;;2.45;;
41512;SDS011;27244;59.940;30.280;2023-04-03T11:44:28;6.22;;;2.40;;
41512;SDS011;27244;59.940;30.280;2023-04-03T11:46:58;6.10;;;2.10;;
41512;SDS011;27244;59.940;30.280;2023-04-03T11:58:24;5.70;;;2.35;;
41512;SDS011;27244;59.940;30.280;2023-04-03T12:12:58;7.28;;;2.20;;
41512;SDS011;27244;59.940;30.280;2023-04-03T12:24:25;4.47;;;2.00;;
41512;SDS011;27244;59.940;30.280;2023-04-03T12:27:01;6.65;;;2.50;;
41512;SDS011;27244;59.940;30.280;2023-04-03T12:29:33;4.70;;;2.05;;
41512;SDS011;27244;59.940;30.280;2023-04-03T12:32:08;3.75;;;2.05;;
41512;SDS011;27244;59.940;30.280;2023-04-03T12:34:50;5.55;;;1.88;;
41512;SDS011;27244;59.940;30.280;2023-04-03T12:37:40;2.75;;;1.52;;
41512;SDS011;27244;59.940;30.280;2023-04-03T12:40:26;3.95;;;1.80;;
41512;SDS011;27244;59.940;30.280;2023-04-03T12:43:14;4.25;;;1.98;;
41512;SDS011;27244;59.940;30.280;2023-04-03T12:45:56;2.65;;;1.52;;
41512;SDS011;27244;59.940;30.280;2023-04-03T12:48:29;4.03;;;2.05;;
41512;SDS011;27244;59.940;30.280;2023-04-03T12:50:57;3.90;;;1.77;;
41512;SDS011;27244;59.940;30.280;2023-04-03T12:53:26;3.53;;;1.58;;
41512;SDS011;27244;59.940;30.280;2023-04-03T12:55:57;5.28;;;1.85;;
41512;SDS011;27244;59.940;30.280;2023-04-03T12:58:44;5.18;;;2.08;;
41512;SDS011;27244;59.940;30.280;2023-04-03T13:01:12;4.78;;;1.65;;
41512;SDS011;27244;59.940;30.280;2023-04-03T13:03:44;3.45;;;1.48;;
41512;SDS011;27244;59.940;30.280;2023-04-03T13:06:17;4.03;;;1.55;;
41512;SDS011;27244;59.940;30.280;2023-04-03T13:08:48;3.45;;;1.52;;
41512;SDS011;27244;59.940;30.280;2023-04-03T13:11:19;2.90;;;1.35;;
41512;SDS011;27244;59.940;30.280;2023-04-03T13:16:21;2.55;;;1.35;;
41512;SDS011;27244;59.940;30.280;2023-04-03T13:18:50;2.95;;;1.20;;
41512;SDS011;27244;59.940;30.280;2023-04-03T13:21:19;3.30;;;1.60;;
41512;SDS011;27244;59.940;30.280;2023-04-03T13:23:51;3.97;;;1.50;;
41512;SDS011;27244;59.940;30.280;2023-04-03T13:26:24;6.30;;;1.45;;
41512;SDS011;27244;59.940;30.280;2023-04-03T13:28:53;3.42;;;1.70;;
41512;SDS011;27244;59.940;30.280;2023-04-03T13:31:28;3.20;;;1.50;;
41512;SDS011;27244;59.940;30.280;2023-04-03T13:34:03;3.33;;;1.50;;
41512;SDS011;27244;59.940;30.280;2023-04-03T13:36:36;3.75;;;1.58;;
41512;SDS011;27244;59.940;30.280;2023-04-03T13:39:06;4.20;;;1.80;;
41512;SDS011;27244;59.940;30.280;2023-04-03T13:41:51;5.28;;;1.60;;
41512;SDS011;27244;59.940;30.280;2023-04-03T13:44:27;3.42;;;1.52;;
41512;SDS011;27244;59.940;30.280;2023-04-03T13:46:59;2.85;;;1.52;;
41512;SDS011;27244;59.940;30.280;2023-04-03T13:49:40;2.95;;;1.35;;
41512;SDS011;27244;59.940;30.280;2023-04-03T13:52:24;1.92;;;1.00;;
41512;SDS011;27244;59.940;30.280;2023-04-03T13:54:54;1.80;;;1.25;;
41512;SDS011;27244;59.940;30.280;2023-04-03T13:57:26;1.85;;;1.05;;
41512;SDS011;27244;59.940;30.280;2023-04-03T13:59:57;2.58;;;1.30;;
41512;SDS011;27244;59.940;30.280;2023-04-03T14:02:29;3.28;;;1.38;;
41512;SDS011;27244;59.940;30.280;2023-04-03T14:04:58;1.98;;;0.90;;
41512;SDS011;27244;59.940;30.280;2023-04-03T14:07:26;2.78;;;1.05;;
41512;SDS011;27244;59.940;30.280;2023-04-03T14:09:57;2.75;;;1.00;;
41512;SDS011;27244;59.940;30.280;2023-04-03T14:12:30;2.35;;;0.90;;
41512;SDS011;27244;59.940;30.280;2023-04-03T14:14:59;1.90;;;1.02;;
41512;SDS011;27244;59.940;30.280;2023-04-03T14:17:28;2.97;;;1.10;;
41512;SDS011;27244;59.940;30.280;2023-04-03T14:19:58;3.17;;;1.33;;
41512;SDS011;27244;59.940;30.280;2023-04-03T14:22:28;1.90;;;1.02;;
41512;SDS011;27244;59.940;30.280;2023-04-03T14:24:57;1.60;;;1.00;;
41512;SDS011;27244;59.940;30.280;2023-04-03T14:27:29;2.80;;;1.13;;
41512;SDS011;27244;59.940;30.280;2023-04-03T14:30:00;2.30;;;1.02;;
41512;SDS011;27244;59.940;30.280;2023-04-03T14:32:29;2.03;;;1.10;;
41512;SDS011;27244;59.940;30.280;2023-04-03T14:34:56;1.48;;;0.77;;
41512;SDS011;27244;59.940;30.280;2023-04-03T14:37:27;3.00;;;1.05;;
41512;SDS011;27244;59.940;30.280;2023-04-03T14:39:56;1.70;;;0.77;;
41512;SDS011;27244;59.940;30.280;2023-04-03T14:42:25;2.42;;;1.00;;
41512;SDS011;27244;59.940;30.280;2023-04-03T14:48:15;2.78;;;0.88;;
41512;SDS011;27244;59.940;30.280;2023-04-03T14:51:37;1.85;;;1.00;;
41512;SDS011;27244;59.940;30.280;2023-04-03T14:54:05;1.70;;;0.90;;
41512;SDS011;27244;59.940;30.280;2023-04-03T14:56:37;1.38;;;0.95;;
41512;SDS011;27244;59.940;30.280;2023-04-03T14:59:17;2.42;;;1.05;;
41512;SDS011;27244;59.940;30.280;2023-04-03T15:01:45;1.88;;;0.85;;
41512;SDS011;27244;59.940;30.280;2023-04-03T15:04:14;1.25;;;0.65;;
41512;SDS011;27244;59.940;30.280;2023-04-03T15:06:42;1.23;;;0.77;;
41512;SDS011;27244;59.940;30.280;2023-04-03T15:09:12;2.05;;;1.05;;
41512;SDS011;27244;59.940;30.280;2023-04-03T15:11:45;1.55;;;0.80;;
41512;SDS011;27244;59.940;30.280;2023-04-03T15:14:15;1.48;;;0.80;;
41512;SDS011;27244;59.940;30.280;2023-04-03T15:16:42;1.95;;;0.90;;
41512;SDS011;27244;59.940;30.280;2023-04-03T15:19:09;1.52;;;0.82;;
41512;SDS011;27244;59.940;30.280;2023-04-03T15:21:38;1.90;;;0.93;;
41512;SDS011;27244;59.940;30.280;2023-04-03T15:24:05;1.95;;;0.90;;
41512;SDS011;27244;59.940;30.280;2023-04-03T15:26:32;2.17;;;0.90;;
41512;SDS011;27244;59.940;30.280;2023-04-03T15:28:59;1.30;;;0.80;;
41512;SDS011;27244;59.940;30.280;2023-04-03T15:31:27;1.50;;;0.75;;
41512;SDS011;27244;59.940;30.280;2023-04-03T15:33:54;1.45;;;0.73;;